sensor_id;sensor_type;location;lat;lon;timestamp;temperature;humidity
59067;DHT22;44854;50.838;4.438;2024-03-23T05:09:55;8.70;99.90
59067;DHT22;44854;50.838;4.438;2024-03-23T05:12:21;8.60;99.90
59067;DHT22;44854;50.838;4.438;2024-03-23T05:14:47;8.70;99.90
59067;DHT22;44854;50.838;4.438;2024-03-23T05:17:13;8.60;99.90
59067;DHT22;44854;50.838;4.438;2024-03-23T05:19:38;8.50;99.90
59067;DHT22;44854;50.838;4.438;2024-03-23T05:22:04;8.40;99.90
59067;DHT22;44854;50.838;4.438;2024-03-23T05:24:30;8.50;99.90
59067;DHT22;44854;50.838;4.438;2024-03-23T05:26:55;8.60;99.90
59067;DHT22;44854;50.838;4.438;2024-03-23T05:29:24;8.60;99.90
59067;DHT22;44854;50.838;4.438;2024-03-23T05:31:51;8.60;99.90
59067;DHT22;44854;50.838;4.438;2024-03-23T05:34:17;8.60;99.90
59067;DHT22;44854;50.838;4.438;2024-03-23T05:36:43;8.60;99.90
59067;DHT22;44854;50.838;4.438;2024-03-23T05:39:09;8.60;99.90
59067;DHT22;44854;50.838;4.438;2024-03-23T05:41:34;8.60;99.90
59067;DHT22;44854;50.838;4.438;2024-03-23T05:44:02;8.70;99.90
59067;DHT22;44854;50.838;4.438;2024-03-23T05:46:28;8.70;99.90
59067;DHT22;44854;50.838;4.438;2024-03-23T05:48:54;8.60;99.90
59067;DHT22;44854;50.838;4.438;2024-03-23T05:51:26;8.60;99.90
59067;DHT22;44854;50.838;4.438;2024-03-23T05:53:51;8.60;99.90
59067;DHT22;44854;50.838;4.438;2024-03-23T05:56:19;8.60;99.90
59067;DHT22;44854;50.838;4.438;2024-03-23T05:58:45;8.50;99.90
59067;DHT22;44854;50.838;4.438;2024-03-23T06:01:12;8.50;99.90
59067;DHT22;44854;50.838;4.438;2024-03-23T06:03:38;8.50;99.90
59067;DHT22;44854;50.838;4.438;2024-03-23T06:06:04;8.50;99.90
59067;DHT22;44854;50.838;4.438;2024-03-23T06:08:31;8.50;99.90
59067;DHT22;44854;50.838;4.438;2024-03-23T06:10:56;8.50;99.90
59067;DHT22;44854;50.838;4.438;2024-03-23T06:13:22;8.50;99.90
59067;DHT22;44854;50.838;4.438;2024-03-23T06:15:55;8.40;99.90
59067;DHT22;44854;50.838;4.438;2024-03-23T06:18:20;8.40;99.90
59067;DHT22;44854;50.838;4.438;2024-03-23T06:20:46;8.50;99.90
59067;DHT22;44854;50.838;4.438;2024-03-23T06:23:12;8.50;99.90
59067;DHT22;44854;50.838;4.438;2024-03-23T06:25:38;8.50;99.90
59067;DHT22;44854;50.838;4.438;2024-03-23T06:28:04;8.60;99.90
59067;DHT22;44854;50.838;4.438;2024-03-23T06:30:31;8.50;99.90
59067;DHT22;44854;50.838;4.438;2024-03-23T06:32:57;8.60;99.90
59067;DHT22;44854;50.838;4.438;2024-03-23T06:35:23;8.40;99.90
59067;DHT22;44854;50.838;4.438;2024-03-23T06:37:49;8.40;99.90
59067;DHT22;44854;50.838;4.438;2024-03-23T06:40:15;8.50;99.90
59067;DHT22;44854;50.838;4.438;2024-03-23T06:42:40;8.50;99.90
59067;DHT22;44854;50.838;4.438;2024-03-23T06:45:06;8.50;99.90
59067;DHT22;44854;50.838;4.438;2024-03-23T06:47:32;8.40;99.90
59067;DHT22;44854;50.838;4.438;2024-03-23T06:50:03;8.50;99.90
59067;DHT22;44854;50.838;4.438;2024-03-23T06:52:29;8.50;99.90
59067;DHT22;44854;50.838;4.438;2024-03-23T06:54:55;8.60;99.90
59067;DHT22;44854;50.838;4.438;2024-03-23T06:57:21;8.60;99.90
59067;DHT22;44854;50.838;4.438;2024-03-23T06:59:47;8.50;99.90
59067;DHT22;44854;50.838;4.438;2024-03-23T07:02:12;8.50;99.90
59067;DHT22;44854;50.838;4.438;2024-03-23T07:04:38;8.40;99.90
59067;DHT22;44854;50.838;4.438;2024-03-23T07:07:05;8.50;99.90
59067;DHT22;44854;50.838;4.438;2024-03-23T07:09:31;8.40;99.90
59067;DHT22;44854;50.838;4.438;2024-03-23T07:11:57;8.40;99.90
59067;DHT22;44854;50.838;4.438;2024-03-23T07:14:23;8.20;99.90
59067;DHT22;44854;50.838;4.438;2024-03-23T07:16:50;8.20;99.90
59067;DHT22;44854;50.838;4.438;2024-03-23T07:19:16;7.80;99.90
59067;DHT22;44854;50.838;4.438;2024-03-23T07:21:43;7.50;99.90
59067;DHT22;44854;50.838;4.438;2024-03-23T07:24:09;7.30;99.90
59067;DHT22;44854;50.838;4.438;2024-03-23T07:26:34;7.40;99.90
59067;DHT22;44854;50.838;4.438;2024-03-23T07:29:00;7.40;99.90
59067;DHT22;44854;50.838;4.438;2024-03-23T07:31:26;7.70;99.90
59067;DHT22;44854;50.838;4.438;2024-03-23T07:33:51;7.70;99.90
59067;DHT22;44854;50.838;4.438;2024-03-23T07:36:17;7.80;99.90
59067;DHT22;44854;50.838;4.438;2024-03-23T07:38:43;7.90;99.90
59067;DHT22;44854;50.838;4.438;2024-03-23T07:41:16;7.90;99.90
59067;DHT22;44854;50.838;4.438;2024-03-23T07:43:46;8.10;99.90
59067;DHT22;44854;50.838;4.438;2024-03-23T07:46:12;8.20;99.90
59067;DHT22;44854;50.838;4.438;2024-03-23T07:48:38;8.30;99.90
59067;DHT22;44854;50.838;4.438;2024-03-23T07:51:17;8.50;99.90
59067;DHT22;44854;50.838;4.438;2024-03-23T07:53:44;8.50;99.90
59067;DHT22;44854;50.838;4.438;2024-03-23T07:56:14;8.60;99.90
59067;DHT22;44854;50.838;4.438;2024-03-23T07:58:47;8.50;99.90
59067;DHT22;44854;50.838;4.438;2024-03-23T08:01:15;8.50;99.90
59067;DHT22;44854;50.838;4.438;2024-03-23T08:03:42;8.50;99.90
59067;DHT22;44854;50.838;4.438;2024-03-23T08:06:09;8.60;99.90
59067;DHT22;44854;50.838;4.438;2024-03-23T08:08:35;8.70;99.90
59067;DHT22;44854;50.838;4.438;2024-03-23T08:11:01;8.60;99.90
59067;DHT22;44854;50.838;4.438;2024-03-23T08:13:28;8.70;99.90
59067;DHT22;44854;50.838;4.438;2024-03-23T08:15:57;8.80;99.90
59067;DHT22;44854;50.838;4.438;2024-03-23T08:18:23;8.80;99.90
59067;DHT22;44854;50.838;4.438;2024-03-23T08:21:01;8.80;99.90
59067;DHT22;44854;50.838;4.438;2024-03-23T08:23:28;8.50;99.90
59067;DHT22;44854;50.838;4.438;2024-03-23T08:26:01;8.50;99.90
59067;DHT22;44854;50.838;4.438;2024-03-23T08:28:27;8.40;99.90
59067;DHT22;44854;50.838;4.438;2024-03-23T08:30:54;8.60;99.90
59067;DHT22;44854;50.838;4.438;2024-03-23T08:33:20;8.80;99.90
59067;DHT22;44854;50.838;4.438;2024-03-23T08:35:56;8.90;99.90
59067;DHT22;44854;50.838;4.438;2024-03-23T08:38:25;8.90;99.90
59067;DHT22;44854;50.838;4.438;2024-03-23T08:43:23;9.00;99.90
59067;DHT22;44854;50.838;4.438;2024-03-23T08:45:49;9.10;99.90
59067;DHT22;44854;50.838;4.438;2024-03-23T08:48:16;9.10;99.90
59067;DHT22;44854;50.838;4.438;2024-03-23T08:50:41;8.90;99.90
59067;DHT22;44854;50.838;4.438;2024-03-23T08:53:08;8.90;99.90
59067;DHT22;44854;50.838;4.438;2024-03-23T08:55:33;9.00;99.90
59067;DHT22;44854;50.838;4.438;2024-03-23T08:57:59;9.00;99.90
59067;DHT22;44854;50.838;4.438;2024-03-23T09:00:26;9.00;99.90
59067;DHT22;44854;50.838;4.438;2024-03-23T09:02:51;9.00;99.90
59067;DHT22;44854;50.838;4.438;2024-03-23T09:05:17;9.00;99.90
59067;DHT22;44854;50.838;4.438;2024-03-23T09:07:42;9.10;99.90
59067;DHT22;44854;50.838;4.438;2024-03-23T09:10:08;9.20;99.90
59067;DHT22;44854;50.838;4.438;2024-03-23T09:12:34;9.30;99.90
59067;DHT22;44854;50.838;4.438;2024-03-23T09:14:59;9.40;99.90
59067;DHT22;44854;50.838;4.438;2024-03-23T09:17:25;9.20;99.90
59067;DHT22;44854;50.838;4.438;2024-03-23T09:19:51;9.30;99.90
59067;DHT22;44854;50.838;4.438;2024-03-23T09:22:16;9.40;99.90
59067;DHT22;44854;50.838;4.438;2024-03-23T09:24:42;9.40;99.90
59067;DHT22;44854;50.838;4.438;2024-03-23T09:27:08;9.50;99.90
59067;DHT22;44854;50.838;4.438;2024-03-23T09:29:33;9.60;99.90
59067;DHT22;44854;50.838;4.438;2024-03-23T09:31:59;9.70;99.90
59067;DHT22;44854;50.838;4.438;2024-03-23T09:34:25;9.90;99.90
59067;DHT22;44854;50.838;4.438;2024-03-23T09:36:51;10.00;99.90
59067;DHT22;44854;50.838;4.438;2024-03-23T09:39:18;10.00;99.90
59067;DHT22;44854;50.838;4.438;2024-03-23T09:41:45;10.00;99.90
59067;DHT22;44854;50.838;4.438;2024-03-23T09:44:10;10.00;99.90
59067;DHT22;44854;50.838;4.438;2024-03-23T09:46:36;10.00;99.90
59067;DHT22;44854;50.838;4.438;2024-03-23T09:49:07;10.00;99.90
59067;DHT22;44854;50.838;4.438;2024-03-23T09:51:36;10.00;99.90
59067;DHT22;44854;50.838;4.438;2024-03-23T09:54:01;10.20;99.90
59067;DHT22;44854;50.838;4.438;2024-03-23T09:56:27;10.40;99.90
59067;DHT22;44854;50.838;4.438;2024-03-23T09:59:02;10.40;99.90
59067;DHT22;44854;50.838;4.438;2024-03-23T10:01:31;10.10;99.90
59067;DHT22;44854;50.838;4.438;2024-03-23T10:03:57;9.90;99.90
59067;DHT22;44854;50.838;4.438;2024-03-23T10:06:22;9.90;99.90
59067;DHT22;44854;50.838;4.438;2024-03-23T10:08:52;10.00;99.90
59067;DHT22;44854;50.838;4.438;2024-03-23T10:11:20;9.90;99.90
59067;DHT22;44854;50.838;4.438;2024-03-23T10:13:46;10.20;99.90
59067;DHT22;44854;50.838;4.438;2024-03-23T10:16:21;10.60;99.90
59067;DHT22;44854;50.838;4.438;2024-03-23T10:18:47;10.90;99.90
59067;DHT22;44854;50.838;4.438;2024-03-23T10:21:14;11.10;99.90
59067;DHT22;44854;50.838;4.438;2024-03-23T10:23:42;10.80;99.90
59067;DHT22;44854;50.838;4.438;2024-03-23T10:26:28;10.90;99.90
59067;DHT22;44854;50.838;4.438;2024-03-23T10:28:56;10.80;99.90
59067;DHT22;44854;50.838;4.438;2024-03-23T10:31:34;10.70;99.90
59067;DHT22;44854;50.838;4.438;2024-03-23T10:34:03;10.90;99.90
59067;DHT22;44854;50.838;4.438;2024-03-23T10:36:30;10.90;99.90
59067;DHT22;44854;50.838;4.438;2024-03-23T10:38:56;11.00;99.90
59067;DHT22;44854;50.838;4.438;2024-03-23T10:41:28;11.10;99.90
59067;DHT22;44854;50.838;4.438;2024-03-23T10:43:55;11.00;99.90
59067;DHT22;44854;50.838;4.438;2024-03-23T10:46:23;10.80;99.90
59067;DHT22;44854;50.838;4.438;2024-03-23T10:48:49;10.70;99.90
59067;DHT22;44854;50.838;4.438;2024-03-23T10:51:15;10.50;99.90
59067;DHT22;44854;50.838;4.438;2024-03-23T10:53:41;10.60;99.90
59067;DHT22;44854;50.838;4.438;2024-03-23T10:56:07;11.10;99.90
59067;DHT22;44854;50.838;4.438;2024-03-23T10:58:42;11.00;99.90
59067;DHT22;44854;50.838;4.438;2024-03-23T11:01:15;10.80;99.90
59067;DHT22;44854;50.838;4.438;2024-03-23T11:03:47;10.70;99.90
59067;DHT22;44854;50.838;4.438;2024-03-23T11:06:36;10.80;99.90
59067;DHT22;44854;50.838;4.438;2024-03-23T11:09:02;10.70;99.90
59067;DHT22;44854;50.838;4.438;2024-03-23T11:11:28;10.80;99.90
59067;DHT22;44854;50.838;4.438;2024-03-23T11:13:57;10.90;99.90
59067;DHT22;44854;50.838;4.438;2024-03-23T11:16:27;10.90;99.90
59067;DHT22;44854;50.838;4.438;2024-03-23T11:19:34;10.80;99.90
59067;DHT22;44854;50.838;4.438;2024-03-23T11:22:01;10.90;99.90
59067;DHT22;44854;50.838;4.438;2024-03-23T11:24:26;11.00;99.90
59067;DHT22;44854;50.838;4.438;2024-03-23T11:26:55;11.20;99.90
59067;DHT22;44854;50.838;4.438;2024-03-23T11:29:21;11.30;99.90
59067;DHT22;44854;50.838;4.438;2024-03-23T11:31:48;11.40;99.90
59067;DHT22;44854;50.838;4.438;2024-03-23T11:34:15;11.50;99.90
59067;DHT22;44854;50.838;4.438;2024-03-23T11:36:42;11.60;99.90
59067;DHT22;44854;50.838;4.438;2024-03-23T11:39:14;11.50;99.90
59067;DHT22;44854;50.838;4.438;2024-03-23T11:41:49;11.30;99.90
59067;DHT22;44854;50.838;4.438;2024-03-23T11:44:18;11.30;99.90
59067;DHT22;44854;50.838;4.438;2024-03-23T11:46:44;11.20;99.90
59067;DHT22;44854;50.838;4.438;2024-03-23T11:49:27;11.30;99.90
59067;DHT22;44854;50.838;4.438;2024-03-23T11:51:55;11.30;99.90
59067;DHT22;44854;50.838;4.438;2024-03-23T11:54:25;11.00;99.90
59067;DHT22;44854;50.838;4.438;2024-03-23T11:57:03;11.00;99.90
59067;DHT22;44854;50.838;4.438;2024-03-23T11:59:40;11.10;99.90
59067;DHT22;44854;50.838;4.438;2024-03-23T12:02:07;11.10;99.90
59067;DHT22;44854;50.838;4.438;2024-03-23T12:04:33;11.10;99.90
59067;DHT22;44854;50.838;4.438;2024-03-23T12:09:39;10.70;99.90
59067;DHT22;44854;50.838;4.438;2024-03-23T12:12:10;10.90;99.90
59067;DHT22;44854;50.838;4.438;2024-03-23T12:14:36;10.90;99.90
59067;DHT22;44854;50.838;4.438;2024-03-23T12:17:14;10.80;99.90
59067;DHT22;44854;50.838;4.438;2024-03-23T12:19:41;11.00;99.90
59067;DHT22;44854;50.838;4.438;2024-03-23T12:22:08;10.90;99.90
59067;DHT22;44854;50.838;4.438;2024-03-23T12:24:36;10.80;99.90
59067;DHT22;44854;50.838;4.438;2024-03-23T12:27:05;10.80;99.90
59067;DHT22;44854;50.838;4.438;2024-03-23T12:29:34;10.70;99.90
59067;DHT22;44854;50.838;4.438;2024-03-23T12:32:03;10.20;99.90
59067;DHT22;44854;50.838;4.438;2024-03-23T12:34:29;10.10;99.90
59067;DHT22;44854;50.838;4.438;2024-03-23T12:36:58;10.00;99.90
59067;DHT22;44854;50.838;4.438;2024-03-23T12:39:23;10.00;99.90
59067;DHT22;44854;50.838;4.438;2024-03-23T12:41:49;10.00;99.90
59067;DHT22;44854;50.838;4.438;2024-03-23T12:44:15;10.20;99.90
59067;DHT22;44854;50.838;4.438;2024-03-23T12:46:41;10.40;99.90
59067;DHT22;44854;50.838;4.438;2024-03-23T12:49:07;10.60;99.90
59067;DHT22;44854;50.838;4.438;2024-03-23T12:51:33;10.60;99.90
59067;DHT22;44854;50.838;4.438;2024-03-23T12:53:59;10.60;99.90
59067;DHT22;44854;50.838;4.438;2024-03-23T12:56:25;11.00;99.90
59067;DHT22;44854;50.838;4.438;2024-03-23T12:58:51;11.10;99.90
59067;DHT22;44854;50.838;4.438;2024-03-23T13:01:19;11.20;99.90
59067;DHT22;44854;50.838;4.438;2024-03-23T13:03:46;11.40;99.90
59067;DHT22;44854;50.838;4.438;2024-03-23T13:06:12;11.50;99.90
59067;DHT22;44854;50.838;4.438;2024-03-23T13:08:38;11.80;99.90
59067;DHT22;44854;50.838;4.438;2024-03-23T13:11:06;11.80;99.90
59067;DHT22;44854;50.838;4.438;2024-03-23T13:13:37;11.90;99.90
59067;DHT22;44854;50.838;4.438;2024-03-23T13:16:04;11.90;99.90
59067;DHT22;44854;50.838;4.438;2024-03-23T13:18:31;12.10;99.90
59067;DHT22;44854;50.838;4.438;2024-03-23T13:20:57;12.00;99.90
59067;DHT22;44854;50.838;4.438;2024-03-23T13:23:23;12.10;99.90
59067;DHT22;44854;50.838;4.438;2024-03-23T13:25:52;11.90;99.90
59067;DHT22;44854;50.838;4.438;2024-03-23T13:28:22;11.80;99.90
59067;DHT22;44854;50.838;4.438;2024-03-23T13:33:17;11.40;99.90
59067;DHT22;44854;50.838;4.438;2024-03-23T13:35:52;11.60;99.90
59067;DHT22;44854;50.838;4.438;2024-03-23T13:38:18;11.60;99.90
59067;DHT22;44854;50.838;4.438;2024-03-23T13:40:56;11.70;99.90
59067;DHT22;44854;50.838;4.438;2024-03-23T13:43:23;11.80;99.90
59067;DHT22;44854;50.838;4.438;2024-03-23T13:45:51;11.80;99.90
59067;DHT22;44854;50.838;4.438;2024-03-23T13:48:20;11.80;99.90
59067;DHT22;44854;50.838;4.438;2024-03-23T13:50:46;11.70;99.90
59067;DHT22;44854;50.838;4.438;2024-03-23T13:53:14;11.80;99.90
59067;DHT22;44854;50.838;4.438;2024-03-23T13:55:46;12.00;99.90
59067;DHT22;44854;50.838;4.438;2024-03-23T13:58:13;12.00;99.90
59067;DHT22;44854;50.838;4.438;2024-03-23T14:00:39;12.00;99.90
59067;DHT22;44854;50.838;4.438;2024-03-23T14:03:05;12.00;99.90
59067;DHT22;44854;50.838;4.438;2024-03-23T14:05:31;11.90;99.90
59067;DHT22;44854;50.838;4.438;2024-03-23T14:07:56;12.00;99.90
59067;DHT22;44854;50.838;4.438;2024-03-23T14:10:22;11.90;99.90
59067;DHT22;44854;50.838;4.438;2024-03-23T14:12:48;11.80;99.90
59067;DHT22;44854;50.838;4.438;2024-03-23T14:15:13;11.70;99.90
59067;DHT22;44854;50.838;4.438;2024-03-23T14:17:39;11.80;99.90
59067;DHT22;44854;50.838;4.438;2024-03-23T14:20:05;11.60;99.90
59067;DHT22;44854;50.838;4.438;2024-03-23T14:22:31;11.50;99.90
59067;DHT22;44854;50.838;4.438;2024-03-23T14:24:57;11.40;99.90
59067;DHT22;44854;50.838;4.438;2024-03-23T14:27:24;11.50;99.90
59067;DHT22;44854;50.838;4.438;2024-03-23T14:29:49;11.60;99.90
59067;DHT22;44854;50.838;4.438;2024-03-23T14:32:16;11.60;99.90
59067;DHT22;44854;50.838;4.438;2024-03-23T14:34:41;11.70;99.90
59067;DHT22;44854;50.838;4.438;2024-03-23T14:37:07;11.80;99.90
59067;DHT22;44854;50.838;4.438;2024-03-23T14:39:33;11.70;99.90
59067;DHT22;44854;50.838;4.438;2024-03-23T14:42:03;11.60;99.90
59067;DHT22;44854;50.838;4.438;2024-03-23T14:44:29;11.60;99.90
59067;DHT22;44854;50.838;4.438;2024-03-23T14:46:54;11.50;99.90
59067;DHT22;44854;50.838;4.438;2024-03-23T14:49:23;11.50;99.90
59067;DHT22;44854;50.838;4.438;2024-03-23T14:51:50;11.50;99.90
59067;DHT22;44854;50.838;4.438;2024-03-23T14:54:16;11.70;99.90
59067;DHT22;44854;50.838;4.438;2024-03-23T14:56:41;11.80;99.90
59067;DHT22;44854;50.838;4.438;2024-03-23T14:59:07;11.80;99.90
59067;DHT22;44854;50.838;4.438;2024-03-23T15:01:33;11.90;99.90
59067;DHT22;44854;50.838;4.438;2024-03-23T15:03:59;11.70;99.90
59067;DHT22;44854;50.838;4.438;2024-03-23T15:06:25;11.80;99.90
59067;DHT22;44854;50.838;4.438;2024-03-23T15:08:51;11.90;99.90
59067;DHT22;44854;50.838;4.438;2024-03-23T15:11:17;11.80;99.90
59067;DHT22;44854;50.838;4.438;2024-03-23T15:13:45;11.80;99.90
59067;DHT22;44854;50.838;4.438;2024-03-23T15:16:17;11.90;99.90
59067;DHT22;44854;50.838;4.438;2024-03-23T15:18:46;11.60;99.90
59067;DHT22;44854;50.838;4.438;2024-03-23T15:21:11;11.60;99.90
59067;DHT22;44854;50.838;4.438;2024-03-23T15:23:39;11.40;99.90
59067;DHT22;44854;50.838;4.438;2024-03-23T15:26:05;11.60;99.90
59067;DHT22;44854;50.838;4.438;2024-03-23T15:28:31;11.80;99.90
59067;DHT22;44854;50.838;4.438;2024-03-23T15:31:29;11.90;99.90
59067;DHT22;44854;50.838;4.438;2024-03-23T15:33:55;11.90;99.90
59067;DHT22;44854;50.838;4.438;2024-03-23T15:36:21;11.90;99.90
59067;DHT22;44854;50.838;4.438;2024-03-23T15:38:47;11.90;99.90
59067;DHT22;44854;50.838;4.438;2024-03-23T15:41:14;12.00;99.90
59067;DHT22;44854;50.838;4.438;2024-03-23T15:43:40;12.00;99.90
59067;DHT22;44854;50.838;4.438;2024-03-23T15:46:07;11.80;99.90
59067;DHT22;44854;50.838;4.438;2024-03-23T15:48:33;11.80;99.90
59067;DHT22;44854;50.838;4.438;2024-03-23T15:51:03;11.90;99.90
59067;DHT22;44854;50.838;4.438;2024-03-23T15:53:30;11.80;99.90
59067;DHT22;44854;50.838;4.438;2024-03-23T15:56:01;11.70;99.90
59067;DHT22;44854;50.838;4.438;2024-03-23T15:58:30;11.70;99.90
59067;DHT22;44854;50.838;4.438;2024-03-23T16:03:29;11.70;99.90
59067;DHT22;44854;50.838;4.438;2024-03-23T16:05:59;11.70;99.90
59067;DHT22;44854;50.838;4.438;2024-03-23T16:08:25;11.90;99.90
59067;DHT22;44854;50.838;4.438;2024-03-23T16:10:51;11.90;99.90
59067;DHT22;44854;50.838;4.438;2024-03-23T16:13:18;11.60;99.90
59067;DHT22;44854;50.838;4.438;2024-03-23T16:16:05;11.50;99.90
59067;DHT22;44854;50.838;4.438;2024-03-23T16:18:32;11.50;99.90
59067;DHT22;44854;50.838;4.438;2024-03-23T16:21:03;11.50;99.90
59067;DHT22;44854;50.838;4.438;2024-03-23T16:23:29;11.60;99.90
59067;DHT22;44854;50.838;4.438;2024-03-23T16:25:56;11.60;99.90
59067;DHT22;44854;50.838;4.438;2024-03-23T16:28:26;11.40;99.90
59067;DHT22;44854;50.838;4.438;2024-03-23T16:30:57;11.40;99.90
59067;DHT22;44854;50.838;4.438;2024-03-23T16:33:24;11.40;99.90
59067;DHT22;44854;50.838;4.438;2024-03-23T16:36:00;11.30;99.90
59067;DHT22;44854;50.838;4.438;2024-03-23T16:38:29;11.20;99.90
59067;DHT22;44854;50.838;4.438;2024-03-23T16:41:02;11.20;99.90
59067;DHT22;44854;50.838;4.438;2024-03-23T16:43:28;11.30;99.90
59067;DHT22;44854;50.838;4.438;2024-03-23T16:45:58;11.30;99.90
59067;DHT22;44854;50.838;4.438;2024-03-23T16:48:25;11.30;99.90
59067;DHT22;44854;50.838;4.438;2024-03-23T16:50:51;11.20;99.90
59067;DHT22;44854;50.838;4.438;2024-03-23T16:53:17;11.20;99.90
59067;DHT22;44854;50.838;4.438;2024-03-23T16:55:43;11.20;99.90
59067;DHT22;44854;50.838;4.438;2024-03-23T16:58:09;11.20;99.90
59067;DHT22;44854;50.838;4.438;2024-03-23T17:00:35;11.30;99.90
59067;DHT22;44854;50.838;4.438;2024-03-23T17:03:04;11.30;99.90
59067;DHT22;44854;50.838;4.438;2024-03-23T17:05:36;11.40;99.90
59067;DHT22;44854;50.838;4.438;2024-03-23T17:08:02;11.30;99.90
59067;DHT22;44854;50.838;4.438;2024-03-23T17:10:28;11.30;99.90
59067;DHT22;44854;50.838;4.438;2024-03-23T17:12:54;11.20;99.90
59067;DHT22;44854;50.838;4.438;2024-03-23T17:15:20;11.20;99.90
59067;DHT22;44854;50.838;4.438;2024-03-23T17:17:48;11.10;99.90
59067;DHT22;44854;50.838;4.438;2024-03-23T17:20:14;11.10;99.90
59067;DHT22;44854;50.838;4.438;2024-03-23T17:22:39;11.10;99.90
59067;DHT22;44854;50.838;4.438;2024-03-23T17:25:06;11.10;99.90
59067;DHT22;44854;50.838;4.438;2024-03-23T17:27:32;11.20;99.90
59067;DHT22;44854;50.838;4.438;2024-03-23T17:29:57;11.10;99.90
59067;DHT22;44854;50.838;4.438;2024-03-23T17:32:23;11.10;99.90
59067;DHT22;44854;50.838;4.438;2024-03-23T17:34:49;11.10;99.90
59067;DHT22;44854;50.838;4.438;2024-03-23T17:37:15;10.90;99.90
59067;DHT22;44854;50.838;4.438;2024-03-23T17:39:43;11.00;99.90
59067;DHT22;44854;50.838;4.438;2024-03-23T17:42:09;11.00;99.90
59067;DHT22;44854;50.838;4.438;2024-03-23T17:44:35;11.00;99.90
59067;DHT22;44854;50.838;4.438;2024-03-23T17:47:00;11.00;99.90
59067;DHT22;44854;50.838;4.438;2024-03-23T17:49:26;10.40;99.90
59067;DHT22;44854;50.838;4.438;2024-03-23T17:51:52;9.90;99.90
59067;DHT22;44854;50.838;4.438;2024-03-23T17:54:17;9.30;99.90
59067;DHT22;44854;50.838;4.438;2024-03-23T17:56:45;8.90;99.90
59067;DHT22;44854;50.838;4.438;2024-03-23T17:59:11;8.80;99.90
59067;DHT22;44854;50.838;4.438;2024-03-23T18:01:36;8.70;99.90
59067;DHT22;44854;50.838;4.438;2024-03-23T18:04:02;8.50;99.90
59067;DHT22;44854;50.838;4.438;2024-03-23T18:06:28;8.30;99.90
59067;DHT22;44854;50.838;4.438;2024-03-23T18:08:54;7.90;99.90
59067;DHT22;44854;50.838;4.438;2024-03-23T18:11:19;7.60;99.90
59067;DHT22;44854;50.838;4.438;2024-03-23T18:13:45;7.40;99.90
59067;DHT22;44854;50.838;4.438;2024-03-23T18:16:10;7.40;99.90
59067;DHT22;44854;50.838;4.438;2024-03-23T18:18:36;7.40;99.90
59067;DHT22;44854;50.838;4.438;2024-03-23T18:21:02;7.50;99.90
59067;DHT22;44854;50.838;4.438;2024-03-23T18:23:28;7.50;99.90
59067;DHT22;44854;50.838;4.438;2024-03-23T18:25:54;7.70;99.90
59067;DHT22;44854;50.838;4.438;2024-03-23T18:28:23;7.70;99.90
59067;DHT22;44854;50.838;4.438;2024-03-23T18:30:59;7.80;99.90
59067;DHT22;44854;50.838;4.438;2024-03-23T18:33:25;7.90;99.90
59067;DHT22;44854;50.838;4.438;2024-03-23T18:35:52;8.10;99.90
59067;DHT22;44854;50.838;4.438;2024-03-23T18:38:21;8.10;99.90
59067;DHT22;44854;50.838;4.438;2024-03-23T18:40:47;8.10;99.90
59067;DHT22;44854;50.838;4.438;2024-03-23T18:43:13;8.20;99.90
59067;DHT22;44854;50.838;4.438;2024-03-23T18:45:48;8.10;99.90
59067;DHT22;44854;50.838;4.438;2024-03-23T18:48:14;8.20;99.90
59067;DHT22;44854;50.838;4.438;2024-03-23T18:50:40;8.20;99.90
59067;DHT22;44854;50.838;4.438;2024-03-23T18:53:10;8.20;99.90
59067;DHT22;44854;50.838;4.438;2024-03-23T18:55:40;8.10;99.90
59067;DHT22;44854;50.838;4.438;2024-03-23T18:58:06;7.90;99.90
59067;DHT22;44854;50.838;4.438;2024-03-23T19:00:33;7.90;99.90
59067;DHT22;44854;50.838;4.438;2024-03-23T19:02:59;7.70;99.90
59067;DHT22;44854;50.838;4.438;2024-03-23T19:05:25;7.70;99.90
59067;DHT22;44854;50.838;4.438;2024-03-23T19:07:51;7.70;99.90
59067;DHT22;44854;50.838;4.438;2024-03-23T19:10:17;7.80;99.90
59067;DHT22;44854;50.838;4.438;2024-03-23T19:12:46;7.80;99.90
59067;DHT22;44854;50.838;4.438;2024-03-23T19:15:12;7.80;99.90
59067;DHT22;44854;50.838;4.438;2024-03-23T19:17:38;7.70;99.90
59067;DHT22;44854;50.838;4.438;2024-03-23T19:20:04;7.90;99.90
59067;DHT22;44854;50.838;4.438;2024-03-23T19:22:37;8.00;99.90
59067;DHT22;44854;50.838;4.438;2024-03-23T19:25:03;8.10;99.90
59067;DHT22;44854;50.838;4.438;2024-03-23T19:27:29;7.90;99.90
59067;DHT22;44854;50.838;4.438;2024-03-23T19:29:54;7.90;99.90
59067;DHT22;44854;50.838;4.438;2024-03-23T19:32:22;8.00;99.90
59067;DHT22;44854;50.838;4.438;2024-03-23T19:34:48;8.00;99.90
59067;DHT22;44854;50.838;4.438;2024-03-23T19:37:13;8.10;99.90
59067;DHT22;44854;50.838;4.438;2024-03-23T19:39:39;8.00;99.90
59067;DHT22;44854;50.838;4.438;2024-03-23T19:42:06;8.00;99.90
59067;DHT22;44854;50.838;4.438;2024-03-23T19:44:33;8.00;99.90
59067;DHT22;44854;50.838;4.438;2024-03-23T19:47:00;8.00;99.90
59067;DHT22;44854;50.838;4.438;2024-03-23T19:49:25;8.10;99.90
59067;DHT22;44854;50.838;4.438;2024-03-23T19:51:52;8.10;99.90
59067;DHT22;44854;50.838;4.438;2024-03-23T19:54:18;8.20;99.90
59067;DHT22;44854;50.838;4.438;2024-03-23T19:56:43;8.20;99.90
59067;DHT22;44854;50.838;4.438;2024-03-23T19:59:09;8.20;99.90
59067;DHT22;44854;50.838;4.438;2024-03-23T20:01:36;8.20;99.90
59067;DHT22;44854;50.838;4.438;2024-03-23T20:04:02;8.20;99.90
59067;DHT22;44854;50.838;4.438;2024-03-23T20:06:30;8.10;99.90
59067;DHT22;44854;50.838;4.438;2024-03-23T20:08:56;7.90;99.90
59067;DHT22;44854;50.838;4.438;2024-03-23T20:11:25;7.90;99.90
59067;DHT22;44854;50.838;4.438;2024-03-23T20:13:51;7.90;99.90
59067;DHT22;44854;50.838;4.438;2024-03-23T20:16:17;7.90;99.90
59067;DHT22;44854;50.838;4.438;2024-03-23T20:18:42;8.00;99.90
59067;DHT22;44854;50.838;4.438;2024-03-23T20:21:08;7.90;99.90
59067;DHT22;44854;50.838;4.438;2024-03-23T20:23:34;7.90;99.90
59067;DHT22;44854;50.838;4.438;2024-03-23T20:26:00;7.90;99.90
59067;DHT22;44854;50.838;4.438;2024-03-23T20:28:27;8.00;99.90
59067;DHT22;44854;50.838;4.438;2024-03-23T20:31:00;8.00;99.90
59067;DHT22;44854;50.838;4.438;2024-03-23T20:33:26;7.90;99.90
59067;DHT22;44854;50.838;4.438;2024-03-23T20:35:52;7.90;99.90
59067;DHT22;44854;50.838;4.438;2024-03-23T20:38:19;7.90;99.90
59067;DHT22;44854;50.838;4.438;2024-03-23T20:40:46;7.80;99.90
59067;DHT22;44854;50.838;4.438;2024-03-23T20:43:12;7.70;99.90
59067;DHT22;44854;50.838;4.438;2024-03-23T20:45:40;7.70;99.90
59067;DHT22;44854;50.838;4.438;2024-03-23T20:48:06;7.60;99.90
59067;DHT22;44854;50.838;4.438;2024-03-23T20:50:32;7.70;99.90
59067;DHT22;44854;50.838;4.438;2024-03-23T20:52:58;7.80;99.90
59067;DHT22;44854;50.838;4.438;2024-03-23T20:55:24;7.80;99.90
59067;DHT22;44854;50.838;4.438;2024-03-23T20:57:50;7.70;99.90